Dillon, Canada
Current Conditions -  °F | °C
As of 8:00 PM on Saturday 20 Dec 2014 (Local Time) from CYVT Reporting Station
Light Snow Light Snow  
Wind Chill:   Ceiling: 1300
Heat Index: 19°   Visibility: 12mi
Dew Point: 18°   Wind: 8mph
Humidity: 93%   Direction: 160°SSE
Pressure: 29.62"   Gusts: NA
Location:  55.93°N, 108.94°W
Report Text: CYVT 210200Z 16007KT 12SM -SN OVC013 M07/M08 A2962 RMK SC8 SLP061
Loading
Personal Weather Stations






























Interactive Weather Map New forecast layout! Learn more

10-Day Weather Forecast

Advertisements
Track Severe Weather on mobile